Aliso Viejo, California
Current Conditions -  °F | °C
As of 11:53 AM on Monday 22 Dec 2014 (Local Time) from KSNA Reporting Station
Haze Haze  
Wind Chill: 72°   Ceiling: Unl
Heat Index: 72°   Visibility: 5mi
Dew Point: 52°   Wind: 0mph
Humidity: 49%   Direction: NA
Pressure: 29.99"   Gusts: NA
Location:  33.57°N, 117.72°W
Report Text: KSNA 221953Z 00000KT 5SM HZ CLR 22/11 A2999 RMK AO2 SLP156 T02220111
Loading
Personal Weather Stations






























Interactive Weather Map New forecast layout! Learn more

10-Day Weather Forecast

Advertisements
Track Severe Weather on mobile